sensor_id;sensor_type;location;lat;lon;timestamp;P1;durP1;ratioP1;P2;durP2;ratioP2
33022;SDS011;19390;51.460;5.710;2023-08-24T00:00:09;10.73;;;7.65;;
33022;SDS011;19390;51.460;5.710;2023-08-24T00:02:35;12.55;;;8.40;;
33022;SDS011;19390;51.460;5.710;2023-08-24T00:05:02;14.15;;;8.68;;
33022;SDS011;19390;51.460;5.710;2023-08-24T00:07:28;8.85;;;7.65;;
33022;SDS011;19390;51.460;5.710;2023-08-24T00:09:53;12.00;;;7.82;;
33022;SDS011;19390;51.460;5.710;2023-08-24T00:12:19;14.05;;;8.32;;
33022;SDS011;19390;51.460;5.710;2023-08-24T00:14:45;11.85;;;7.95;;
33022;SDS011;19390;51.460;5.710;2023-08-24T00:17:10;15.02;;;8.35;;
33022;SDS011;19390;51.460;5.710;2023-08-24T00:19:36;11.75;;;7.80;;
33022;SDS011;19390;51.460;5.710;2023-08-24T00:22:01;13.23;;;8.23;;
33022;SDS011;19390;51.460;5.710;2023-08-24T00:24:27;10.95;;;7.82;;
33022;SDS011;19390;51.460;5.710;2023-08-24T00:26:53;12.75;;;7.82;;
33022;SDS011;19390;51.460;5.710;2023-08-24T00:29:18;10.82;;;8.02;;
33022;SDS011;19390;51.460;5.710;2023-08-24T00:31:43;10.52;;;7.53;;
33022;SDS011;19390;51.460;5.710;2023-08-24T00:34:09;12.30;;;7.57;;
33022;SDS011;19390;51.460;5.710;2023-08-24T00:36:35;10.30;;;8.13;;
33022;SDS011;19390;51.460;5.710;2023-08-24T00:39:02;10.20;;;7.32;;
33022;SDS011;19390;51.460;5.710;2023-08-24T00:41:28;11.00;;;7.90;;
33022;SDS011;19390;51.460;5.710;2023-08-24T00:43:53;12.80;;;8.63;;
33022;SDS011;19390;51.460;5.710;2023-08-24T00:46:19;12.05;;;8.25;;
33022;SDS011;19390;51.460;5.710;2023-08-24T00:48:45;10.35;;;8.13;;
33022;SDS011;19390;51.460;5.710;2023-08-24T00:51:11;12.93;;;9.48;;
33022;SDS011;19390;51.460;5.710;2023-08-24T00:53:36;9.65;;;8.13;;
33022;SDS011;19390;51.460;5.710;2023-08-24T00:56:03;12.15;;;8.27;;
33022;SDS011;19390;51.460;5.710;2023-08-24T00:58:29;11.27;;;9.00;;
33022;SDS011;19390;51.460;5.710;2023-08-24T01:00:56;13.02;;;8.52;;
33022;SDS011;19390;51.460;5.710;2023-08-24T01:03:22;11.35;;;8.18;;
33022;SDS011;19390;51.460;5.710;2023-08-24T01:05:49;11.45;;;8.35;;
33022;SDS011;19390;51.460;5.710;2023-08-24T01:08:14;13.70;;;8.70;;
33022;SDS011;19390;51.460;5.710;2023-08-24T01:10:46;14.13;;;8.30;;
33022;SDS011;19390;51.460;5.710;2023-08-24T01:13:21;11.80;;;8.13;;
33022;SDS011;19390;51.460;5.710;2023-08-24T01:16:03;12.13;;;8.32;;
33022;SDS011;19390;51.460;5.710;2023-08-24T01:18:37;12.15;;;8.98;;
33022;SDS011;19390;51.460;5.710;2023-08-24T01:21:04;10.93;;;9.00;;
33022;SDS011;19390;51.460;5.710;2023-08-24T01:23:36;11.82;;;9.10;;
33022;SDS011;19390;51.460;5.710;2023-08-24T01:26:14;10.05;;;8.55;;
33022;SDS011;19390;51.460;5.710;2023-08-24T01:28:44;11.70;;;7.68;;
33022;SDS011;19390;51.460;5.710;2023-08-24T01:31:10;10.82;;;8.40;;
33022;SDS011;19390;51.460;5.710;2023-08-24T01:33:35;11.13;;;8.27;;
33022;SDS011;19390;51.460;5.710;2023-08-24T01:36:01;10.65;;;8.15;;
33022;SDS011;19390;51.460;5.710;2023-08-24T01:38:27;15.38;;;8.98;;
33022;SDS011;19390;51.460;5.710;2023-08-24T01:40:54;10.15;;;8.52;;
33022;SDS011;19390;51.460;5.710;2023-08-24T01:43:43;12.50;;;9.55;;
33022;SDS011;19390;51.460;5.710;2023-08-24T01:46:11;13.35;;;8.75;;
33022;SDS011;19390;51.460;5.710;2023-08-24T01:48:40;14.48;;;9.23;;
33022;SDS011;19390;51.460;5.710;2023-08-24T01:51:07;12.98;;;9.13;;
33022;SDS011;19390;51.460;5.710;2023-08-24T01:53:33;14.43;;;10.45;;
33022;SDS011;19390;51.460;5.710;2023-08-24T01:55:59;14.07;;;9.80;;
33022;SDS011;19390;51.460;5.710;2023-08-24T01:58:24;11.88;;;9.50;;
33022;SDS011;19390;51.460;5.710;2023-08-24T02:00:50;14.63;;;10.50;;
33022;SDS011;19390;51.460;5.710;2023-08-24T02:03:15;14.63;;;10.35;;
33022;SDS011;19390;51.460;5.710;2023-08-24T02:05:41;15.75;;;10.32;;
33022;SDS011;19390;51.460;5.710;2023-08-24T02:08:06;13.80;;;9.77;;
33022;SDS011;19390;51.460;5.710;2023-08-24T02:10:32;17.83;;;11.32;;
33022;SDS011;19390;51.460;5.710;2023-08-24T02:12:57;16.88;;;11.48;;
33022;SDS011;19390;51.460;5.710;2023-08-24T02:15:23;16.73;;;10.52;;
33022;SDS011;19390;51.460;5.710;2023-08-24T02:17:49;17.80;;;11.25;;
33022;SDS011;19390;51.460;5.710;2023-08-24T02:20:14;15.43;;;10.55;;
33022;SDS011;19390;51.460;5.710;2023-08-24T02:22:40;12.25;;;9.60;;
33022;SDS011;19390;51.460;5.710;2023-08-24T02:25:06;13.48;;;10.75;;
33022;SDS011;19390;51.460;5.710;2023-08-24T02:27:32;16.98;;;9.95;;
33022;SDS011;19390;51.460;5.710;2023-08-24T02:29:58;16.58;;;10.07;;
33022;SDS011;19390;51.460;5.710;2023-08-24T02:32:23;15.23;;;11.00;;
33022;SDS011;19390;51.460;5.710;2023-08-24T02:34:49;13.25;;;10.52;;
33022;SDS011;19390;51.460;5.710;2023-08-24T02:37:15;11.43;;;10.07;;
33022;SDS011;19390;51.460;5.710;2023-08-24T02:39:40;15.68;;;10.05;;
33022;SDS011;19390;51.460;5.710;2023-08-24T02:42:06;12.93;;;10.32;;
33022;SDS011;19390;51.460;5.710;2023-08-24T02:44:32;17.58;;;11.18;;
33022;SDS011;19390;51.460;5.710;2023-08-24T02:46:57;13.65;;;10.00;;
33022;SDS011;19390;51.460;5.710;2023-08-24T02:49:23;14.77;;;10.00;;
33022;SDS011;19390;51.460;5.710;2023-08-24T02:51:49;11.20;;;9.55;;
33022;SDS011;19390;51.460;5.710;2023-08-24T02:54:14;17.20;;;10.57;;
33022;SDS011;19390;51.460;5.710;2023-08-24T02:56:40;15.02;;;11.02;;
33022;SDS011;19390;51.460;5.710;2023-08-24T02:59:05;18.58;;;11.95;;
33022;SDS011;19390;51.460;5.710;2023-08-24T03:01:31;15.35;;;11.70;;
33022;SDS011;19390;51.460;5.710;2023-08-24T03:03:57;16.15;;;11.63;;
33022;SDS011;19390;51.460;5.710;2023-08-24T03:06:22;16.02;;;11.45;;
33022;SDS011;19390;51.460;5.710;2023-08-24T03:08:51;13.35;;;10.55;;
33022;SDS011;19390;51.460;5.710;2023-08-24T03:11:17;15.80;;;12.02;;
33022;SDS011;19390;51.460;5.710;2023-08-24T03:13:42;17.13;;;11.90;;
33022;SDS011;19390;51.460;5.710;2023-08-24T03:16:08;17.85;;;12.35;;
33022;SDS011;19390;51.460;5.710;2023-08-24T03:18:34;16.40;;;12.52;;
33022;SDS011;19390;51.460;5.710;2023-08-24T03:21:00;18.88;;;13.55;;
33022;SDS011;19390;51.460;5.710;2023-08-24T03:23:26;18.30;;;13.23;;
33022;SDS011;19390;51.460;5.710;2023-08-24T03:25:52;19.38;;;13.88;;
33022;SDS011;19390;51.460;5.710;2023-08-24T03:28:17;18.67;;;15.00;;
33022;SDS011;19390;51.460;5.710;2023-08-24T03:30:47;24.27;;;15.52;;
33022;SDS011;19390;51.460;5.710;2023-08-24T03:33:13;21.40;;;14.70;;
33022;SDS011;19390;51.460;5.710;2023-08-24T03:35:39;26.05;;;16.30;;
33022;SDS011;19390;51.460;5.710;2023-08-24T03:38:05;23.77;;;17.05;;
33022;SDS011;19390;51.460;5.710;2023-08-24T03:40:31;27.67;;;19.13;;
33022;SDS011;19390;51.460;5.710;2023-08-24T03:42:57;23.13;;;17.23;;
33022;SDS011;19390;51.460;5.710;2023-08-24T03:45:22;24.73;;;18.35;;
33022;SDS011;19390;51.460;5.710;2023-08-24T03:47:48;21.38;;;17.15;;
33022;SDS011;19390;51.460;5.710;2023-08-24T03:50:14;22.80;;;18.08;;
33022;SDS011;19390;51.460;5.710;2023-08-24T03:52:40;29.02;;;19.17;;
33022;SDS011;19390;51.460;5.710;2023-08-24T03:55:07;26.88;;;19.55;;
33022;SDS011;19390;51.460;5.710;2023-08-24T03:57:33;30.95;;;21.83;;
33022;SDS011;19390;51.460;5.710;2023-08-24T03:59:58;24.33;;;17.60;;
33022;SDS011;19390;51.460;5.710;2023-08-24T04:02:24;27.63;;;20.92;;
33022;SDS011;19390;51.460;5.710;2023-08-24T04:04:50;25.48;;;18.75;;
33022;SDS011;19390;51.460;5.710;2023-08-24T04:07:16;36.78;;;20.50;;
33022;SDS011;19390;51.460;5.710;2023-08-24T04:09:41;28.02;;;20.00;;
33022;SDS011;19390;51.460;5.710;2023-08-24T04:12:07;20.95;;;18.65;;
33022;SDS011;19390;51.460;5.710;2023-08-24T04:14:33;28.25;;;20.15;;
33022;SDS011;19390;51.460;5.710;2023-08-24T04:16:58;27.17;;;19.08;;
33022;SDS011;19390;51.460;5.710;2023-08-24T04:19:24;24.50;;;18.73;;
33022;SDS011;19390;51.460;5.710;2023-08-24T04:21:49;22.17;;;18.60;;
33022;SDS011;19390;51.460;5.710;2023-08-24T04:24:15;26.92;;;18.67;;
33022;SDS011;19390;51.460;5.710;2023-08-24T04:26:41;24.63;;;18.88;;
33022;SDS011;19390;51.460;5.710;2023-08-24T04:29:06;22.08;;;18.58;;
33022;SDS011;19390;51.460;5.710;2023-08-24T04:31:32;25.30;;;20.48;;
33022;SDS011;19390;51.460;5.710;2023-08-24T04:33:57;25.02;;;19.73;;
33022;SDS011;19390;51.460;5.710;2023-08-24T04:36:23;31.45;;;20.50;;
33022;SDS011;19390;51.460;5.710;2023-08-24T04:38:48;29.20;;;19.45;;
33022;SDS011;19390;51.460;5.710;2023-08-24T04:41:14;24.02;;;18.42;;
33022;SDS011;19390;51.460;5.710;2023-08-24T04:43:40;29.02;;;20.10;;
33022;SDS011;19390;51.460;5.710;2023-08-24T04:46:06;27.20;;;19.35;;
33022;SDS011;19390;51.460;5.710;2023-08-24T04:48:31;27.73;;;20.45;;
33022;SDS011;19390;51.460;5.710;2023-08-24T04:51:03;24.95;;;19.63;;
33022;SDS011;19390;51.460;5.710;2023-08-24T04:53:28;28.40;;;19.08;;
33022;SDS011;19390;51.460;5.710;2023-08-24T04:55:54;27.02;;;19.52;;
33022;SDS011;19390;51.460;5.710;2023-08-24T04:58:20;28.98;;;20.65;;
33022;SDS011;19390;51.460;5.710;2023-08-24T05:00:46;25.50;;;19.55;;
33022;SDS011;19390;51.460;5.710;2023-08-24T05:03:13;36.60;;;22.65;;
33022;SDS011;19390;51.460;5.710;2023-08-24T05:05:39;37.83;;;23.85;;
33022;SDS011;19390;51.460;5.710;2023-08-24T05:08:05;30.10;;;20.80;;
33022;SDS011;19390;51.460;5.710;2023-08-24T05:10:31;34.53;;;21.90;;
33022;SDS011;19390;51.460;5.710;2023-08-24T05:12:58;32.80;;;21.23;;
33022;SDS011;19390;51.460;5.710;2023-08-24T05:15:24;27.38;;;21.15;;
33022;SDS011;19390;51.460;5.710;2023-08-24T05:17:50;27.27;;;20.92;;
33022;SDS011;19390;51.460;5.710;2023-08-24T05:20:19;33.53;;;23.88;;
33022;SDS011;19390;51.460;5.710;2023-08-24T05:22:45;30.92;;;22.35;;
33022;SDS011;19390;51.460;5.710;2023-08-24T05:25:11;23.90;;;20.52;;
33022;SDS011;19390;51.460;5.710;2023-08-24T05:27:37;28.98;;;20.67;;
33022;SDS011;19390;51.460;5.710;2023-08-24T05:30:02;29.25;;;20.65;;
33022;SDS011;19390;51.460;5.710;2023-08-24T05:32:30;24.02;;;20.10;;
33022;SDS011;19390;51.460;5.710;2023-08-24T05:34:56;26.45;;;22.58;;
33022;SDS011;19390;51.460;5.710;2023-08-24T05:37:21;33.38;;;23.25;;
33022;SDS011;19390;51.460;5.710;2023-08-24T05:39:47;27.30;;;21.25;;
33022;SDS011;19390;51.460;5.710;2023-08-24T05:42:13;33.08;;;23.20;;
33022;SDS011;19390;51.460;5.710;2023-08-24T05:44:38;30.92;;;21.38;;
33022;SDS011;19390;51.460;5.710;2023-08-24T05:47:04;30.33;;;21.88;;
33022;SDS011;19390;51.460;5.710;2023-08-24T05:49:30;31.55;;;22.33;;
33022;SDS011;19390;51.460;5.710;2023-08-24T05:51:55;31.25;;;23.55;;
33022;SDS011;19390;51.460;5.710;2023-08-24T05:54:21;29.45;;;21.33;;
33022;SDS011;19390;51.460;5.710;2023-08-24T05:56:47;29.13;;;21.13;;
33022;SDS011;19390;51.460;5.710;2023-08-24T05:59:13;29.55;;;21.33;;
33022;SDS011;19390;51.460;5.710;2023-08-24T06:01:39;21.45;;;17.83;;
33022;SDS011;19390;51.460;5.710;2023-08-24T06:04:06;20.98;;;14.10;;
33022;SDS011;19390;51.460;5.710;2023-08-24T06:06:35;20.27;;;14.13;;
33022;SDS011;19390;51.460;5.710;2023-08-24T06:09:01;18.52;;;13.27;;
33022;SDS011;19390;51.460;5.710;2023-08-24T06:11:31;21.60;;;13.43;;
33022;SDS011;19390;51.460;5.710;2023-08-24T06:13:57;17.42;;;13.18;;
33022;SDS011;19390;51.460;5.710;2023-08-24T06:16:23;17.38;;;12.32;;
33022;SDS011;19390;51.460;5.710;2023-08-24T06:18:49;16.00;;;12.80;;
33022;SDS011;19390;51.460;5.710;2023-08-24T06:21:15;15.15;;;11.75;;
33022;SDS011;19390;51.460;5.710;2023-08-24T06:23:41;13.38;;;11.30;;
33022;SDS011;19390;51.460;5.710;2023-08-24T06:26:06;17.02;;;12.80;;
33022;SDS011;19390;51.460;5.710;2023-08-24T06:28:32;17.08;;;12.85;;
33022;SDS011;19390;51.460;5.710;2023-08-24T06:30:59;18.55;;;12.57;;
33022;SDS011;19390;51.460;5.710;2023-08-24T06:33:28;13.55;;;11.02;;
33022;SDS011;19390;51.460;5.710;2023-08-24T06:35:57;17.88;;;11.98;;
33022;SDS011;19390;51.460;5.710;2023-08-24T06:38:23;16.38;;;11.70;;
33022;SDS011;19390;51.460;5.710;2023-08-24T06:40:50;14.45;;;10.65;;
33022;SDS011;19390;51.460;5.710;2023-08-24T06:43:15;16.45;;;11.55;;
33022;SDS011;19390;51.460;5.710;2023-08-24T06:45:41;12.77;;;9.68;;
33022;SDS011;19390;51.460;5.710;2023-08-24T06:48:07;15.93;;;11.82;;
33022;SDS011;19390;51.460;5.710;2023-08-24T06:50:33;15.55;;;11.60;;
33022;SDS011;19390;51.460;5.710;2023-08-24T06:52:58;16.42;;;9.95;;
33022;SDS011;19390;51.460;5.710;2023-08-24T06:55:24;12.55;;;9.20;;
33022;SDS011;19390;51.460;5.710;2023-08-24T06:57:52;12.63;;;9.88;;
33022;SDS011;19390;51.460;5.710;2023-08-24T07:00:18;13.30;;;9.75;;
33022;SDS011;19390;51.460;5.710;2023-08-24T07:02:45;10.15;;;8.23;;
33022;SDS011;19390;51.460;5.710;2023-08-24T07:05:11;13.20;;;9.18;;
33022;SDS011;19390;51.460;5.710;2023-08-24T07:07:37;12.30;;;9.10;;
33022;SDS011;19390;51.460;5.710;2023-08-24T07:10:03;13.75;;;8.65;;
33022;SDS011;19390;51.460;5.710;2023-08-24T07:12:29;11.48;;;8.50;;
33022;SDS011;19390;51.460;5.710;2023-08-24T07:14:55;9.18;;;8.25;;
33022;SDS011;19390;51.460;5.710;2023-08-24T07:17:20;13.88;;;9.10;;
33022;SDS011;19390;51.460;5.710;2023-08-24T07:19:46;10.15;;;7.65;;
33022;SDS011;19390;51.460;5.710;2023-08-24T07:22:11;12.57;;;8.52;;
33022;SDS011;19390;51.460;5.710;2023-08-24T07:24:37;9.27;;;7.85;;
33022;SDS011;19390;51.460;5.710;2023-08-24T07:27:03;11.60;;;9.02;;
33022;SDS011;19390;51.460;5.710;2023-08-24T07:29:28;11.23;;;6.68;;
33022;SDS011;19390;51.460;5.710;2023-08-24T07:31:54;8.15;;;7.00;;
33022;SDS011;19390;51.460;5.710;2023-08-24T07:34:20;13.45;;;7.78;;
33022;SDS011;19390;51.460;5.710;2023-08-24T07:36:47;8.98;;;7.72;;
33022;SDS011;19390;51.460;5.710;2023-08-24T07:39:13;11.18;;;7.30;;
33022;SDS011;19390;51.460;5.710;2023-08-24T07:41:40;10.98;;;7.65;;
33022;SDS011;19390;51.460;5.710;2023-08-24T07:44:09;13.23;;;7.22;;
33022;SDS011;19390;51.460;5.710;2023-08-24T07:46:35;7.65;;;6.40;;
33022;SDS011;19390;51.460;5.710;2023-08-24T07:49:00;12.35;;;6.65;;
33022;SDS011;19390;51.460;5.710;2023-08-24T07:51:26;9.30;;;6.45;;
33022;SDS011;19390;51.460;5.710;2023-08-24T07:53:53;10.45;;;7.47;;
33022;SDS011;19390;51.460;5.710;2023-08-24T07:56:18;9.50;;;6.63;;
33022;SDS011;19390;51.460;5.710;2023-08-24T07:58:44;10.15;;;6.43;;
33022;SDS011;19390;51.460;5.710;2023-08-24T08:01:10;10.20;;;6.50;;
33022;SDS011;19390;51.460;5.710;2023-08-24T08:03:36;8.55;;;6.07;;
33022;SDS011;19390;51.460;5.710;2023-08-24T08:06:02;9.65;;;6.03;;
33022;SDS011;19390;51.460;5.710;2023-08-24T08:08:28;10.30;;;5.95;;
33022;SDS011;19390;51.460;5.710;2023-08-24T08:10:57;13.35;;;6.70;;
33022;SDS011;19390;51.460;5.710;2023-08-24T08:13:24;10.88;;;6.53;;
33022;SDS011;19390;51.460;5.710;2023-08-24T08:15:50;10.60;;;6.30;;
33022;SDS011;19390;51.460;5.710;2023-08-24T08:18:16;8.30;;;5.72;;
33022;SDS011;19390;51.460;5.710;2023-08-24T08:20:41;8.45;;;5.80;;
33022;SDS011;19390;51.460;5.710;2023-08-24T08:23:07;7.90;;;5.40;;
33022;SDS011;19390;51.460;5.710;2023-08-24T08:25:33;6.50;;;5.00;;
33022;SDS011;19390;51.460;5.710;2023-08-24T08:27:58;8.35;;;4.53;;
33022;SDS011;19390;51.460;5.710;2023-08-24T08:30:24;6.80;;;5.05;;
33022;SDS011;19390;51.460;5.710;2023-08-24T08:32:49;7.07;;;5.22;;
33022;SDS011;19390;51.460;5.710;2023-08-24T08:35:19;12.10;;;4.80;;
33022;SDS011;19390;51.460;5.710;2023-08-24T08:37:46;9.70;;;4.50;;
33022;SDS011;19390;51.460;5.710;2023-08-24T08:40:14;7.93;;;5.10;;
33022;SDS011;19390;51.460;5.710;2023-08-24T08:42:42;7.35;;;4.53;;
33022;SDS011;19390;51.460;5.710;2023-08-24T08:45:09;5.88;;;4.32;;
33022;SDS011;19390;51.460;5.710;2023-08-24T08:47:36;7.63;;;4.30;;
33022;SDS011;19390;51.460;5.710;2023-08-24T08:50:03;11.35;;;4.32;;
33022;SDS011;19390;51.460;5.710;2023-08-24T08:52:30;5.35;;;3.63;;
33022;SDS011;19390;51.460;5.710;2023-08-24T08:54:59;7.88;;;3.72;;
33022;SDS011;19390;51.460;5.710;2023-08-24T08:57:25;4.80;;;3.40;;
33022;SDS011;19390;51.460;5.710;2023-08-24T08:59:53;5.85;;;3.40;;
33022;SDS011;19390;51.460;5.710;2023-08-24T09:02:20;7.07;;;3.17;;
33022;SDS011;19390;51.460;5.710;2023-08-24T09:04:48;4.43;;;2.85;;
33022;SDS011;19390;51.460;5.710;2023-08-24T09:07:16;7.18;;;3.40;;
33022;SDS011;19390;51.460;5.710;2023-08-24T09:09:41;5.53;;;3.38;;
33022;SDS011;19390;51.460;5.710;2023-08-24T09:12:08;7.32;;;3.67;;
33022;SDS011;19390;51.460;5.710;2023-08-24T09:14:34;7.35;;;3.10;;
33022;SDS011;19390;51.460;5.710;2023-08-24T09:17:00;5.22;;;3.60;;
33022;SDS011;19390;51.460;5.710;2023-08-24T09:19:30;6.45;;;2.97;;
33022;SDS011;19390;51.460;5.710;2023-08-24T09:21:56;6.55;;;3.13;;
33022;SDS011;19390;51.460;5.710;2023-08-24T09:24:28;6.82;;;3.20;;
33022;SDS011;19390;51.460;5.710;2023-08-24T09:26:58;5.55;;;3.20;;
33022;SDS011;19390;51.460;5.710;2023-08-24T09:29:25;5.00;;;3.20;;
33022;SDS011;19390;51.460;5.710;2023-08-24T09:31:51;6.88;;;3.30;;
33022;SDS011;19390;51.460;5.710;2023-08-24T09:34:20;5.15;;;3.03;;
33022;SDS011;19390;51.460;5.710;2023-08-24T09:36:46;6.75;;;3.22;;
33022;SDS011;19390;51.460;5.710;2023-08-24T09:39:12;6.57;;;2.95;;
33022;SDS011;19390;51.460;5.710;2023-08-24T09:41:41;5.50;;;3.10;;
33022;SDS011;19390;51.460;5.710;2023-08-24T09:44:11;6.90;;;3.20;;
33022;SDS011;19390;51.460;5.710;2023-08-24T09:46:39;8.05;;;3.22;;
33022;SDS011;19390;51.460;5.710;2023-08-24T09:49:10;7.20;;;3.80;;
33022;SDS011;19390;51.460;5.710;2023-08-24T09:51:40;8.75;;;3.70;;
33022;SDS011;19390;51.460;5.710;2023-08-24T09:54:09;9.93;;;3.47;;
33022;SDS011;19390;51.460;5.710;2023-08-24T09:56:36;5.88;;;3.35;;
33022;SDS011;19390;51.460;5.710;2023-08-24T09:59:07;5.85;;;3.35;;
33022;SDS011;19390;51.460;5.710;2023-08-24T10:01:38;5.22;;;2.90;;
33022;SDS011;19390;51.460;5.710;2023-08-24T10:04:07;8.13;;;3.10;;
33022;SDS011;19390;51.460;5.710;2023-08-24T10:06:34;4.82;;;3.22;;
33022;SDS011;19390;51.460;5.710;2023-08-24T10:09:02;7.38;;;3.17;;
33022;SDS011;19390;51.460;5.710;2023-08-24T10:11:32;5.25;;;2.97;;
33022;SDS011;19390;51.460;5.710;2023-08-24T10:14:05;8.88;;;3.58;;
33022;SDS011;19390;51.460;5.710;2023-08-24T10:16:37;8.77;;;3.58;;
33022;SDS011;19390;51.460;5.710;2023-08-24T10:19:04;9.32;;;3.53;;
33022;SDS011;19390;51.460;5.710;2023-08-24T10:21:31;11.55;;;3.20;;
33022;SDS011;19390;51.460;5.710;2023-08-24T10:23:57;7.00;;;3.70;;
33022;SDS011;19390;51.460;5.710;2023-08-24T10:26:23;9.25;;;3.75;;
33022;SDS011;19390;51.460;5.710;2023-08-24T10:28:52;7.80;;;3.35;;
33022;SDS011;19390;51.460;5.710;2023-08-24T10:31:18;9.07;;;4.47;;
33022;SDS011;19390;51.460;5.710;2023-08-24T10:33:45;8.50;;;4.22;;
33022;SDS011;19390;51.460;5.710;2023-08-24T10:36:15;10.60;;;5.10;;
33022;SDS011;19390;51.460;5.710;2023-08-24T10:38:42;7.82;;;3.90;;
33022;SDS011;19390;51.460;5.710;2023-08-24T10:41:07;6.93;;;4.25;;
33022;SDS011;19390;51.460;5.710;2023-08-24T10:43:34;4.80;;;3.97;;
33022;SDS011;19390;51.460;5.710;2023-08-24T10:46:03;7.30;;;3.80;;
33022;SDS011;19390;51.460;5.710;2023-08-24T10:48:30;9.20;;;4.15;;
33022;SDS011;19390;51.460;5.710;2023-08-24T10:51:17;6.50;;;3.88;;
33022;SDS011;19390;51.460;5.710;2023-08-24T10:53:56;7.53;;;4.28;;
33022;SDS011;19390;51.460;5.710;2023-08-24T10:56:30;6.13;;;4.80;;
33022;SDS011;19390;51.460;5.710;2023-08-24T10:59:10;8.07;;;4.43;;
33022;SDS011;19390;51.460;5.710;2023-08-24T11:01:43;7.03;;;4.00;;
33022;SDS011;19390;51.460;5.710;2023-08-24T11:04:20;10.50;;;4.40;;
33022;SDS011;19390;51.460;5.710;2023-08-24T11:06:55;6.60;;;4.28;;
33022;SDS011;19390;51.460;5.710;2023-08-24T11:09:23;8.60;;;4.70;;
33022;SDS011;19390;51.460;5.710;2023-08-24T11:11:57;7.85;;;5.57;;
33022;SDS011;19390;51.460;5.710;2023-08-24T11:14:31;10.40;;;6.03;;
33022;SDS011;19390;51.460;5.710;2023-08-24T11:17:19;12.73;;;5.40;;
33022;SDS011;19390;51.460;5.710;2023-08-24T11:19:47;9.75;;;4.97;;
33022;SDS011;19390;51.460;5.710;2023-08-24T11:22:17;12.98;;;5.57;;
33022;SDS011;19390;51.460;5.710;2023-08-24T11:24:43;9.05;;;4.30;;
33022;SDS011;19390;51.460;5.710;2023-08-24T11:27:10;8.77;;;4.53;;
33022;SDS011;19390;51.460;5.710;2023-08-24T11:29:36;10.80;;;5.25;;
33022;SDS011;19390;51.460;5.710;2023-08-24T11:32:01;10.43;;;4.85;;
33022;SDS011;19390;51.460;5.710;2023-08-24T11:34:27;8.02;;;4.88;;
33022;SDS011;19390;51.460;5.710;2023-08-24T11:36:54;12.45;;;5.25;;
33022;SDS011;19390;51.460;5.710;2023-08-24T11:39:20;10.60;;;5.53;;
33022;SDS011;19390;51.460;5.710;2023-08-24T11:42:06;13.18;;;6.10;;
33022;SDS011;19390;51.460;5.710;2023-08-24T11:44:47;11.10;;;6.90;;
33022;SDS011;19390;51.460;5.710;2023-08-24T11:47:14;10.10;;;6.25;;
33022;SDS011;19390;51.460;5.710;2023-08-24T11:49:40;16.02;;;6.53;;
33022;SDS011;19390;51.460;5.710;2023-08-24T11:52:06;9.30;;;6.13;;
33022;SDS011;19390;51.460;5.710;2023-08-24T11:54:32;9.68;;;5.25;;
33022;SDS011;19390;51.460;5.710;2023-08-24T11:56:58;11.30;;;5.28;;
33022;SDS011;19390;51.460;5.710;2023-08-24T11:59:23;10.43;;;5.80;;
33022;SDS011;19390;51.460;5.710;2023-08-24T12:01:50;8.35;;;5.18;;
33022;SDS011;19390;51.460;5.710;2023-08-24T12:04:17;10.40;;;5.57;;
33022;SDS011;19390;51.460;5.710;2023-08-24T12:06:43;9.60;;;5.63;;
33022;SDS011;19390;51.460;5.710;2023-08-24T12:09:09;10.20;;;4.80;;
33022;SDS011;19390;51.460;5.710;2023-08-24T12:11:35;8.05;;;5.07;;
33022;SDS011;19390;51.460;5.710;2023-08-24T12:14:01;10.02;;;5.03;;
33022;SDS011;19390;51.460;5.710;2023-08-24T12:16:30;8.65;;;5.88;;
33022;SDS011;19390;51.460;5.710;2023-08-24T12:18:57;10.30;;;5.85;;
33022;SDS011;19390;51.460;5.710;2023-08-24T12:21:25;9.25;;;5.53;;
33022;SDS011;19390;51.460;5.710;2023-08-24T12:24:01;8.68;;;4.80;;
33022;SDS011;19390;51.460;5.710;2023-08-24T12:26:31;10.70;;;5.40;;
33022;SDS011;19390;51.460;5.710;2023-08-24T12:29:00;11.15;;;4.95;;
33022;SDS011;19390;51.460;5.710;2023-08-24T12:31:30;6.72;;;4.30;;
33022;SDS011;19390;51.460;5.710;2023-08-24T12:34:03;6.63;;;3.70;;
33022;SDS011;19390;51.460;5.710;2023-08-24T12:36:32;7.50;;;4.32;;
33022;SDS011;19390;51.460;5.710;2023-08-24T12:38:58;7.15;;;4.68;;
33022;SDS011;19390;51.460;5.710;2023-08-24T12:41:24;10.55;;;5.90;;
33022;SDS011;19390;51.460;5.710;2023-08-24T12:43:50;12.20;;;6.60;;
33022;SDS011;19390;51.460;5.710;2023-08-24T12:46:17;9.10;;;5.53;;
33022;SDS011;19390;51.460;5.710;2023-08-24T12:48:42;8.35;;;5.35;;
33022;SDS011;19390;51.460;5.710;2023-08-24T12:51:08;11.90;;;5.05;;
33022;SDS011;19390;51.460;5.710;2023-08-24T12:53:33;8.07;;;5.50;;
33022;SDS011;19390;51.460;5.710;2023-08-24T12:55:59;9.93;;;5.07;;
33022;SDS011;19390;51.460;5.710;2023-08-24T12:58:24;10.68;;;5.07;;
33022;SDS011;19390;51.460;5.710;2023-08-24T13:00:50;10.98;;;5.35;;
33022;SDS011;19390;51.460;5.710;2023-08-24T13:03:16;8.88;;;4.72;;
33022;SDS011;19390;51.460;5.710;2023-08-24T13:05:42;7.85;;;4.28;;
33022;SDS011;19390;51.460;5.710;2023-08-24T13:08:07;7.90;;;4.50;;
33022;SDS011;19390;51.460;5.710;2023-08-24T13:10:33;5.90;;;4.35;;
33022;SDS011;19390;51.460;5.710;2023-08-24T13:12:59;9.85;;;4.60;;
33022;SDS011;19390;51.460;5.710;2023-08-24T13:15:24;7.50;;;4.70;;
33022;SDS011;19390;51.460;5.710;2023-08-24T13:17:51;5.82;;;3.75;;
33022;SDS011;19390;51.460;5.710;2023-08-24T13:20:16;10.18;;;4.00;;
33022;SDS011;19390;51.460;5.710;2023-08-24T13:22:42;8.57;;;4.78;;
33022;SDS011;19390;51.460;5.710;2023-08-24T13:25:08;11.52;;;5.18;;
33022;SDS011;19390;51.460;5.710;2023-08-24T13:27:34;7.28;;;4.97;;
33022;SDS011;19390;51.460;5.710;2023-08-24T13:30:00;5.97;;;4.45;;
33022;SDS011;19390;51.460;5.710;2023-08-24T13:32:26;9.05;;;5.20;;
33022;SDS011;19390;51.460;5.710;2023-08-24T13:34:52;10.23;;;4.30;;
33022;SDS011;19390;51.460;5.710;2023-08-24T13:37:17;8.55;;;4.82;;
33022;SDS011;19390;51.460;5.710;2023-08-24T13:39:43;5.97;;;4.43;;
33022;SDS011;19390;51.460;5.710;2023-08-24T13:42:09;6.30;;;4.53;;
33022;SDS011;19390;51.460;5.710;2023-08-24T13:44:34;10.68;;;4.72;;
33022;SDS011;19390;51.460;5.710;2023-08-24T13:47:00;9.00;;;4.72;;
33022;SDS011;19390;51.460;5.710;2023-08-24T13:49:25;9.52;;;4.53;;
33022;SDS011;19390;51.460;5.710;2023-08-24T13:51:51;9.48;;;4.68;;
33022;SDS011;19390;51.460;5.710;2023-08-24T13:54:17;8.63;;;5.13;;
33022;SDS011;19390;51.460;5.710;2023-08-24T13:56:44;10.98;;;5.38;;
33022;SDS011;19390;51.460;5.710;2023-08-24T13:59:10;7.75;;;5.18;;
33022;SDS011;19390;51.460;5.710;2023-08-24T14:01:39;11.05;;;5.32;;
33022;SDS011;19390;51.460;5.710;2023-08-24T14:04:05;9.32;;;4.95;;
33022;SDS011;19390;51.460;5.710;2023-08-24T14:06:31;8.70;;;4.80;;
33022;SDS011;19390;51.460;5.710;2023-08-24T14:08:58;10.52;;;5.72;;
33022;SDS011;19390;51.460;5.710;2023-08-24T14:11:24;11.68;;;5.80;;
33022;SDS011;19390;51.460;5.710;2023-08-24T14:13:50;8.00;;;5.28;;
33022;SDS011;19390;51.460;5.710;2023-08-24T14:16:16;10.80;;;5.35;;
33022;SDS011;19390;51.460;5.710;2023-08-24T14:18:43;9.60;;;5.68;;
33022;SDS011;19390;51.460;5.710;2023-08-24T14:21:09;15.13;;;5.60;;
33022;SDS011;19390;51.460;5.710;2023-08-24T14:23:35;9.20;;;5.55;;
33022;SDS011;19390;51.460;5.710;2023-08-24T14:26:01;8.65;;;5.82;;
33022;SDS011;19390;51.460;5.710;2023-08-24T14:28:26;11.02;;;5.80;;
33022;SDS011;19390;51.460;5.710;2023-08-24T14:31:23;13.18;;;6.10;;
33022;SDS011;19390;51.460;5.710;2023-08-24T14:33:49;6.75;;;5.50;;